Hlavní strana
METAR-TAF:

METAR-TAF

Letiště :

Port Moresby, Papua-Nová Guinea

zeměpisná šířka: 09-26S, zeměpisná délka: 147-13E, výška: 38 m

Aktuální stav počasí

Zpráva byla vytvořena před 24 minutami, v 16:00 UTC
Bezvětří
Teplota 24°C
Vlhkost vzduchu 89%
Tlak 1009 hPa
Viditelnost 10 km a více
Skoro jasno ve výšce 5000 ft

METAR: AYPY 181600Z 00000KT 9999 FEW050 24/22 Q1009

Čas: 02:24 (16:24 UTC)

Předpověď počasí

Zpráva byla vytvořena před 12 hodinami a 49 minutami, v 03:35 UTC
Předpověď platná od 18 v 06 UTC do 19 v 06 UTC
Jihojihozápadní vítr 10 kt
Viditelnost 10 km a více
Polojasno ve výšce 1800 ft
Polojasno ve výšce 4000 ft
Od 18 v 0900 UTC
Jižní vítr 8 kt
Viditelnost 10 km a více
Polojasno ve výšce 4000 ft
Od 18 v 1200 UTC
Jihojihovýchodní vítr 5 kt
Viditelnost 10 km a více
Oblačno až skoro zataženo ve výšce 4000 ft

TAF: AYPY 180335Z 1806/1906 20010KT 9999 SCT018 SCT040 FM180900 17008KT 9999 SCT040 FM181200 16005KT 9999 BKN040

Stav a předpovědi počasí z více než 4 000 letišť (zprávy METAR a TAF).

Červené a žluté tečky na mapě představují dostupné meteorologické stanice.

Když kurzor umístíte na tečku, zobrazí se název stanice.

Pak kliknutím zobrazíte stav a předpověď počasí.

Chcete-li změnit mapu, kliknutím na zelené tlačítko se znaménkem +mapu přiblížíte, kliknutím na zelené tlačítko se znaménkem – mapu oddálíte a kliknutím na zelené šipky přejdete na sousední mapy.


METAR-TAF: